sensor_id;sensor_type;location;lat;lon;timestamp;P1;P2;P0
61913;PMS5003;50095;53.336;-1.488;2022-08-21T00:01:45;3;3;
61913;PMS5003;50095;53.336;-1.488;2022-08-21T00:04:13;3;3;
61913;PMS5003;50095;53.336;-1.488;2022-08-21T00:06:41;5;3;
61913;PMS5003;50095;53.336;-1.488;2022-08-21T00:09:08;5;5;
61913;PMS5003;50095;53.336;-1.488;2022-08-21T00:11:36;4;3;
61913;PMS5003;50095;53.336;-1.488;2022-08-21T00:14:06;4;4;
61913;PMS5003;50095;53.336;-1.488;2022-08-21T00:16:35;5;5;
61913;PMS5003;50095;53.336;-1.488;2022-08-21T00:19:03;5;4;
61913;PMS5003;50095;53.336;-1.488;2022-08-21T00:21:32;6;5;
61913;PMS5003;50095;53.336;-1.488;2022-08-21T00:24:00;3;3;
61913;PMS5003;50095;53.336;-1.488;2022-08-21T00:26:27;3;3;
61913;PMS5003;50095;53.336;-1.488;2022-08-21T00:28:55;5;4;
61913;PMS5003;50095;53.336;-1.488;2022-08-21T00:31:22;5;5;
61913;PMS5003;50095;53.336;-1.488;2022-08-21T00:33:49;3;3;
61913;PMS5003;50095;53.336;-1.488;2022-08-21T00:36:17;5;3;
61913;PMS5003;50095;53.336;-1.488;2022-08-21T00:38:45;4;4;
61913;PMS5003;50095;53.336;-1.488;2022-08-21T00:41:12;3;3;
61913;PMS5003;50095;53.336;-1.488;2022-08-21T00:43:40;3;3;
61913;PMS5003;50095;53.336;-1.488;2022-08-21T00:46:07;3;3;
61913;PMS5003;50095;53.336;-1.488;2022-08-21T00:48:35;4;4;
61913;PMS5003;50095;53.336;-1.488;2022-08-21T00:51:04;4;4;
61913;PMS5003;50095;53.336;-1.488;2022-08-21T00:53:33;3;3;
61913;PMS5003;50095;53.336;-1.488;2022-08-21T00:56:05;3;3;
61913;PMS5003;50095;53.336;-1.488;2022-08-21T00:58:35;4;2;
61913;PMS5003;50095;53.336;-1.488;2022-08-21T01:01:05;3;3;
61913;PMS5003;50095;53.336;-1.488;2022-08-21T01:03:33;3;3;
61913;PMS5003;50095;53.336;-1.488;2022-08-21T01:06:01;5;5;
61913;PMS5003;50095;53.336;-1.488;2022-08-21T01:08:29;4;4;
61913;PMS5003;50095;53.336;-1.488;2022-08-21T01:10:57;2;2;
61913;PMS5003;50095;53.336;-1.488;2022-08-21T01:13:26;3;3;
61913;PMS5003;50095;53.336;-1.488;2022-08-21T01:15:55;3;3;
61913;PMS5003;50095;53.336;-1.488;2022-08-21T01:18:25;4;4;
61913;PMS5003;50095;53.336;-1.488;2022-08-21T01:21:03;4;3;
61913;PMS5003;50095;53.336;-1.488;2022-08-21T01:23:34;4;4;
61913;PMS5003;50095;53.336;-1.488;2022-08-21T01:26:03;7;5;
61913;PMS5003;50095;53.336;-1.488;2022-08-21T01:28:33;5;5;
61913;PMS5003;50095;53.336;-1.488;2022-08-21T01:31:05;3;3;
61913;PMS5003;50095;53.336;-1.488;2022-08-21T01:33:36;4;2;
61913;PMS5003;50095;53.336;-1.488;2022-08-21T01:36:04;5;4;
61913;PMS5003;50095;53.336;-1.488;2022-08-21T01:38:31;3;3;
61913;PMS5003;50095;53.336;-1.488;2022-08-21T01:40:58;4;4;
61913;PMS5003;50095;53.336;-1.488;2022-08-21T01:43:26;6;6;
61913;PMS5003;50095;53.336;-1.488;2022-08-21T01:45:53;2;2;
61913;PMS5003;50095;53.336;-1.488;2022-08-21T01:48:21;3;3;
61913;PMS5003;50095;53.336;-1.488;2022-08-21T01:50:48;6;5;
61913;PMS5003;50095;53.336;-1.488;2022-08-21T01:53:16;4;4;
61913;PMS5003;50095;53.336;-1.488;2022-08-21T01:55:43;7;7;
61913;PMS5003;50095;53.336;-1.488;2022-08-21T01:58:11;2;2;
61913;PMS5003;50095;53.336;-1.488;2022-08-21T02:00:39;3;3;
61913;PMS5003;50095;53.336;-1.488;2022-08-21T02:03:06;4;4;
61913;PMS5003;50095;53.336;-1.488;2022-08-21T02:05:34;4;4;
61913;PMS5003;50095;53.336;-1.488;2022-08-21T02:08:01;5;4;
61913;PMS5003;50095;53.336;-1.488;2022-08-21T02:10:30;4;4;
61913;PMS5003;50095;53.336;-1.488;2022-08-21T02:12:59;4;4;
61913;PMS5003;50095;53.336;-1.488;2022-08-21T02:15:28;3;3;
61913;PMS5003;50095;53.336;-1.488;2022-08-21T02:17:57;3;3;
61913;PMS5003;50095;53.336;-1.488;2022-08-21T02:20:29;4;4;
61913;PMS5003;50095;53.336;-1.488;2022-08-21T02:22:58;5;5;
61913;PMS5003;50095;53.336;-1.488;2022-08-21T02:25:26;2;2;
61913;PMS5003;50095;53.336;-1.488;2022-08-21T02:27:54;3;3;
61913;PMS5003;50095;53.336;-1.488;2022-08-21T02:30:23;5;5;
61913;PMS5003;50095;53.336;-1.488;2022-08-21T02:32:53;5;5;
61913;PMS5003;50095;53.336;-1.488;2022-08-21T02:35:21;5;5;
61913;PMS5003;50095;53.336;-1.488;2022-08-21T02:37:49;6;6;
61913;PMS5003;50095;53.336;-1.488;2022-08-21T02:40:21;7;4;
61913;PMS5003;50095;53.336;-1.488;2022-08-21T02:42:51;3;3;
61913;PMS5003;50095;53.336;-1.488;2022-08-21T02:45:18;5;4;
61913;PMS5003;50095;53.336;-1.488;2022-08-21T02:47:48;2;2;
61913;PMS5003;50095;53.336;-1.488;2022-08-21T02:50:17;3;3;
61913;PMS5003;50095;53.336;-1.488;2022-08-21T02:52:46;5;5;
61913;PMS5003;50095;53.336;-1.488;2022-08-21T02:55:14;6;4;
61913;PMS5003;50095;53.336;-1.488;2022-08-21T02:57:42;5;4;
61913;PMS5003;50095;53.336;-1.488;2022-08-21T03:00:10;5;2;
61913;PMS5003;50095;53.336;-1.488;2022-08-21T03:02:38;4;4;
61913;PMS5003;50095;53.336;-1.488;2022-08-21T03:05:06;3;3;
61913;PMS5003;50095;53.336;-1.488;2022-08-21T03:07:35;3;3;
61913;PMS5003;50095;53.336;-1.488;2022-08-21T03:10:03;5;4;
61913;PMS5003;50095;53.336;-1.488;2022-08-21T03:12:32;3;3;
61913;PMS5003;50095;53.336;-1.488;2022-08-21T03:15:00;5;5;
61913;PMS5003;50095;53.336;-1.488;2022-08-21T03:17:27;4;3;
61913;PMS5003;50095;53.336;-1.488;2022-08-21T03:19:55;4;4;
61913;PMS5003;50095;53.336;-1.488;2022-08-21T03:22:22;2;2;
61913;PMS5003;50095;53.336;-1.488;2022-08-21T03:24:50;5;5;
61913;PMS5003;50095;53.336;-1.488;2022-08-21T03:27:17;4;4;
61913;PMS5003;50095;53.336;-1.488;2022-08-21T03:29:49;2;2;
61913;PMS5003;50095;53.336;-1.488;2022-08-21T03:32:17;5;5;
61913;PMS5003;50095;53.336;-1.488;2022-08-21T03:34:45;4;4;
61913;PMS5003;50095;53.336;-1.488;2022-08-21T03:37:13;4;4;
61913;PMS5003;50095;53.336;-1.488;2022-08-21T03:39:41;3;3;
61913;PMS5003;50095;53.336;-1.488;2022-08-21T03:42:09;4;4;
61913;PMS5003;50095;53.336;-1.488;2022-08-21T03:44:38;6;6;
61913;PMS5003;50095;53.336;-1.488;2022-08-21T03:47:05;4;4;
61913;PMS5003;50095;53.336;-1.488;2022-08-21T03:49:33;3;3;
61913;PMS5003;50095;53.336;-1.488;2022-08-21T03:52:00;4;4;
61913;PMS5003;50095;53.336;-1.488;2022-08-21T03:54:28;6;4;
61913;PMS5003;50095;53.336;-1.488;2022-08-21T03:56:55;2;2;
61913;PMS5003;50095;53.336;-1.488;2022-08-21T03:59:23;5;5;
61913;PMS5003;50095;53.336;-1.488;2022-08-21T04:01:52;6;5;
61913;PMS5003;50095;53.336;-1.488;2022-08-21T04:04:20;4;3;
61913;PMS5003;50095;53.336;-1.488;2022-08-21T04:06:47;3;3;
61913;PMS5003;50095;53.336;-1.488;2022-08-21T04:09:15;5;5;
61913;PMS5003;50095;53.336;-1.488;2022-08-21T04:11:43;4;4;
61913;PMS5003;50095;53.336;-1.488;2022-08-21T04:14:10;5;5;
61913;PMS5003;50095;53.336;-1.488;2022-08-21T04:16:38;4;4;
61913;PMS5003;50095;53.336;-1.488;2022-08-21T04:19:06;7;6;
61913;PMS5003;50095;53.336;-1.488;2022-08-21T04:21:34;7;6;
61913;PMS5003;50095;53.336;-1.488;2022-08-21T04:24:03;7;6;
61913;PMS5003;50095;53.336;-1.488;2022-08-21T04:26:32;5;5;
61913;PMS5003;50095;53.336;-1.488;2022-08-21T04:28:59;4;4;
61913;PMS5003;50095;53.336;-1.488;2022-08-21T04:31:26;4;4;
61913;PMS5003;50095;53.336;-1.488;2022-08-21T04:33:54;5;4;
61913;PMS5003;50095;53.336;-1.488;2022-08-21T04:36:22;2;2;
61913;PMS5003;50095;53.336;-1.488;2022-08-21T04:38:49;4;4;
61913;PMS5003;50095;53.336;-1.488;2022-08-21T04:41:17;4;4;
61913;PMS5003;50095;53.336;-1.488;2022-08-21T04:43:45;5;3;
61913;PMS5003;50095;53.336;-1.488;2022-08-21T04:46:12;2;2;
61913;PMS5003;50095;53.336;-1.488;2022-08-21T04:48:40;3;3;
61913;PMS5003;50095;53.336;-1.488;2022-08-21T04:51:09;4;4;
61913;PMS5003;50095;53.336;-1.488;2022-08-21T04:53:40;4;4;
61913;PMS5003;50095;53.336;-1.488;2022-08-21T04:56:11;4;4;
61913;PMS5003;50095;53.336;-1.488;2022-08-21T04:58:45;4;4;
61913;PMS5003;50095;53.336;-1.488;2022-08-21T05:01:15;5;5;
61913;PMS5003;50095;53.336;-1.488;2022-08-21T05:03:45;5;5;
61913;PMS5003;50095;53.336;-1.488;2022-08-21T05:06:16;4;4;
61913;PMS5003;50095;53.336;-1.488;2022-08-21T05:08:44;1;1;
61913;PMS5003;50095;53.336;-1.488;2022-08-21T05:11:15;6;4;
61913;PMS5003;50095;53.336;-1.488;2022-08-21T05:13:42;4;4;
61913;PMS5003;50095;53.336;-1.488;2022-08-21T05:16:10;6;6;
61913;PMS5003;50095;53.336;-1.488;2022-08-21T05:18:38;5;4;
61913;PMS5003;50095;53.336;-1.488;2022-08-21T05:21:05;6;6;
61913;PMS5003;50095;53.336;-1.488;2022-08-21T05:23:33;5;5;
61913;PMS5003;50095;53.336;-1.488;2022-08-21T05:26:00;5;5;
61913;PMS5003;50095;53.336;-1.488;2022-08-21T05:28:28;7;6;
61913;PMS5003;50095;53.336;-1.488;2022-08-21T05:30:56;3;3;
61913;PMS5003;50095;53.336;-1.488;2022-08-21T05:33:23;4;4;
61913;PMS5003;50095;53.336;-1.488;2022-08-21T05:35:51;5;5;
61913;PMS5003;50095;53.336;-1.488;2022-08-21T05:38:19;4;4;
61913;PMS5003;50095;53.336;-1.488;2022-08-21T05:40:47;4;3;
61913;PMS5003;50095;53.336;-1.488;2022-08-21T05:43:16;4;4;
61913;PMS5003;50095;53.336;-1.488;2022-08-21T05:45:43;5;5;
61913;PMS5003;50095;53.336;-1.488;2022-08-21T05:48:11;5;5;
61913;PMS5003;50095;53.336;-1.488;2022-08-21T05:50:41;5;5;
61913;PMS5003;50095;53.336;-1.488;2022-08-21T05:53:10;5;5;
61913;PMS5003;50095;53.336;-1.488;2022-08-21T05:55:38;4;4;
61913;PMS5003;50095;53.336;-1.488;2022-08-21T05:58:06;4;3;
61913;PMS5003;50095;53.336;-1.488;2022-08-21T06:00:34;6;5;
61913;PMS5003;50095;53.336;-1.488;2022-08-21T06:03:02;4;4;
61913;PMS5003;50095;53.336;-1.488;2022-08-21T06:05:29;4;4;
61913;PMS5003;50095;53.336;-1.488;2022-08-21T06:07:56;7;6;
61913;PMS5003;50095;53.336;-1.488;2022-08-21T06:10:24;3;3;
61913;PMS5003;50095;53.336;-1.488;2022-08-21T06:12:52;4;3;
61913;PMS5003;50095;53.336;-1.488;2022-08-21T06:15:20;6;6;
61913;PMS5003;50095;53.336;-1.488;2022-08-21T06:17:47;6;6;
61913;PMS5003;50095;53.336;-1.488;2022-08-21T06:20:15;5;5;
61913;PMS5003;50095;53.336;-1.488;2022-08-21T06:22:43;4;4;
61913;PMS5003;50095;53.336;-1.488;2022-08-21T06:25:10;4;4;
61913;PMS5003;50095;53.336;-1.488;2022-08-21T06:27:38;5;5;
61913;PMS5003;50095;53.336;-1.488;2022-08-21T06:30:06;6;5;
61913;PMS5003;50095;53.336;-1.488;2022-08-21T06:32:35;4;4;
61913;PMS5003;50095;53.336;-1.488;2022-08-21T06:35:03;3;3;
61913;PMS5003;50095;53.336;-1.488;2022-08-21T06:37:32;5;5;
61913;PMS5003;50095;53.336;-1.488;2022-08-21T06:39:59;5;4;
61913;PMS5003;50095;53.336;-1.488;2022-08-21T06:42:27;4;4;
61913;PMS5003;50095;53.336;-1.488;2022-08-21T06:44:54;4;4;
61913;PMS5003;50095;53.336;-1.488;2022-08-21T06:47:23;4;4;
61913;PMS5003;50095;53.336;-1.488;2022-08-21T06:49:51;4;4;
61913;PMS5003;50095;53.336;-1.488;2022-08-21T06:52:18;3;3;
61913;PMS5003;50095;53.336;-1.488;2022-08-21T06:54:45;4;4;
61913;PMS5003;50095;53.336;-1.488;2022-08-21T06:57:13;3;3;
61913;PMS5003;50095;53.336;-1.488;2022-08-21T06:59:40;2;2;
61913;PMS5003;50095;53.336;-1.488;2022-08-21T07:02:08;3;3;
61913;PMS5003;50095;53.336;-1.488;2022-08-21T07:04:35;6;4;
61913;PMS5003;50095;53.336;-1.488;2022-08-21T07:07:03;4;4;
61913;PMS5003;50095;53.336;-1.488;2022-08-21T07:09:31;4;3;
61913;PMS5003;50095;53.336;-1.488;2022-08-21T07:11:58;4;4;
61913;PMS5003;50095;53.336;-1.488;2022-08-21T07:14:26;5;4;
61913;PMS5003;50095;53.336;-1.488;2022-08-21T07:16:54;4;4;
61913;PMS5003;50095;53.336;-1.488;2022-08-21T07:19:21;4;4;
61913;PMS5003;50095;53.336;-1.488;2022-08-21T07:21:49;6;6;
61913;PMS5003;50095;53.336;-1.488;2022-08-21T07:24:17;6;4;
61913;PMS5003;50095;53.336;-1.488;2022-08-21T07:26:45;8;8;
61913;PMS5003;50095;53.336;-1.488;2022-08-21T07:29:12;7;7;
61913;PMS5003;50095;53.336;-1.488;2022-08-21T07:31:40;7;6;
61913;PMS5003;50095;53.336;-1.488;2022-08-21T07:34:07;5;5;
61913;PMS5003;50095;53.336;-1.488;2022-08-21T07:36:35;12;10;
61913;PMS5003;50095;53.336;-1.488;2022-08-21T07:39:02;6;6;
61913;PMS5003;50095;53.336;-1.488;2022-08-21T07:41:30;6;6;
61913;PMS5003;50095;53.336;-1.488;2022-08-21T07:43:58;8;8;
61913;PMS5003;50095;53.336;-1.488;2022-08-21T07:46:26;7;7;
61913;PMS5003;50095;53.336;-1.488;2022-08-21T07:48:53;8;7;
61913;PMS5003;50095;53.336;-1.488;2022-08-21T07:51:22;8;7;
61913;PMS5003;50095;53.336;-1.488;2022-08-21T07:53:53;7;7;
61913;PMS5003;50095;53.336;-1.488;2022-08-21T07:56:21;9;9;
61913;PMS5003;50095;53.336;-1.488;2022-08-21T07:58:49;6;6;
61913;PMS5003;50095;53.336;-1.488;2022-08-21T08:01:15;10;9;
61913;PMS5003;50095;53.336;-1.488;2022-08-21T08:03:43;14;13;
61913;PMS5003;50095;53.336;-1.488;2022-08-21T08:06:11;18;18;
61913;PMS5003;50095;53.336;-1.488;2022-08-21T08:08:38;22;21;
61913;PMS5003;50095;53.336;-1.488;2022-08-21T08:11:07;21;21;
61913;PMS5003;50095;53.336;-1.488;2022-08-21T08:13:37;22;22;
61913;PMS5003;50095;53.336;-1.488;2022-08-21T08:16:05;16;16;
61913;PMS5003;50095;53.336;-1.488;2022-08-21T08:18:34;18;17;
61913;PMS5003;50095;53.336;-1.488;2022-08-21T08:21:02;25;23;
61913;PMS5003;50095;53.336;-1.488;2022-08-21T08:23:29;18;18;
61913;PMS5003;50095;53.336;-1.488;2022-08-21T08:25:56;17;17;
61913;PMS5003;50095;53.336;-1.488;2022-08-21T08:28:24;14;14;
61913;PMS5003;50095;53.336;-1.488;2022-08-21T08:30:52;16;16;
61913;PMS5003;50095;53.336;-1.488;2022-08-21T08:33:20;14;13;
61913;PMS5003;50095;53.336;-1.488;2022-08-21T08:35:49;14;13;
61913;PMS5003;50095;53.336;-1.488;2022-08-21T08:38:17;13;11;
61913;PMS5003;50095;53.336;-1.488;2022-08-21T08:40:48;12;12;
61913;PMS5003;50095;53.336;-1.488;2022-08-21T08:43:19;15;13;
61913;PMS5003;50095;53.336;-1.488;2022-08-21T08:45:47;15;15;
61913;PMS5003;50095;53.336;-1.488;2022-08-21T08:48:21;15;14;
61913;PMS5003;50095;53.336;-1.488;2022-08-21T08:51:03;10;10;
61913;PMS5003;50095;53.336;-1.488;2022-08-21T08:53:43;12;11;
61913;PMS5003;50095;53.336;-1.488;2022-08-21T08:56:16;9;9;
61913;PMS5003;50095;53.336;-1.488;2022-08-21T08:58:52;12;12;
61913;PMS5003;50095;53.336;-1.488;2022-08-21T09:01:23;11;11;
61913;PMS5003;50095;53.336;-1.488;2022-08-21T09:03:50;11;11;
61913;PMS5003;50095;53.336;-1.488;2022-08-21T09:06:25;9;9;
61913;PMS5003;50095;53.336;-1.488;2022-08-21T09:09:03;11;11;
61913;PMS5003;50095;53.336;-1.488;2022-08-21T09:11:47;12;11;
61913;PMS5003;50095;53.336;-1.488;2022-08-21T09:14:21;10;10;
61913;PMS5003;50095;53.336;-1.488;2022-08-21T09:16:59;8;8;
61913;PMS5003;50095;53.336;-1.488;2022-08-21T09:19:39;7;7;
61913;PMS5003;50095;53.336;-1.488;2022-08-21T09:22:23;7;7;
61913;PMS5003;50095;53.336;-1.488;2022-08-21T09:25:03;10;8;
61913;PMS5003;50095;53.336;-1.488;2022-08-21T09:27:38;7;6;
61913;PMS5003;50095;53.336;-1.488;2022-08-21T09:30:07;7;7;
61913;PMS5003;50095;53.336;-1.488;2022-08-21T09:32:36;9;9;
61913;PMS5003;50095;53.336;-1.488;2022-08-21T09:35:06;6;6;
61913;PMS5003;50095;53.336;-1.488;2022-08-21T09:37:44;7;5;
61913;PMS5003;50095;53.336;-1.488;2022-08-21T09:40:18;7;6;
61913;PMS5003;50095;53.336;-1.488;2022-08-21T09:42:54;7;7;
61913;PMS5003;50095;53.336;-1.488;2022-08-21T09:45:23;6;6;
61913;PMS5003;50095;53.336;-1.488;2022-08-21T09:47:50;5;5;
61913;PMS5003;50095;53.336;-1.488;2022-08-21T09:50:20;11;10;
61913;PMS5003;50095;53.336;-1.488;2022-08-21T09:52:50;7;7;
61913;PMS5003;50095;53.336;-1.488;2022-08-21T09:55:23;7;7;
61913;PMS5003;50095;53.336;-1.488;2022-08-21T09:57:57;8;7;
61913;PMS5003;50095;53.336;-1.488;2022-08-21T10:00:26;8;7;
61913;PMS5003;50095;53.336;-1.488;2022-08-21T10:03:07;4;4;
61913;PMS5003;50095;53.336;-1.488;2022-08-21T10:05:36;6;6;
61913;PMS5003;50095;53.336;-1.488;2022-08-21T10:08:05;5;5;
61913;PMS5003;50095;53.336;-1.488;2022-08-21T10:10:44;5;5;
61913;PMS5003;50095;53.336;-1.488;2022-08-21T10:13:13;5;5;
61913;PMS5003;50095;53.336;-1.488;2022-08-21T10:15:49;5;5;
61913;PMS5003;50095;53.336;-1.488;2022-08-21T10:18:38;4;4;
61913;PMS5003;50095;53.336;-1.488;2022-08-21T10:21:10;5;5;
61913;PMS5003;50095;53.336;-1.488;2022-08-21T10:23:53;4;4;
61913;PMS5003;50095;53.336;-1.488;2022-08-21T10:26:37;6;6;
61913;PMS5003;50095;53.336;-1.488;2022-08-21T10:29:14;5;5;
61913;PMS5003;50095;53.336;-1.488;2022-08-21T10:31:57;7;6;
61913;PMS5003;50095;53.336;-1.488;2022-08-21T10:34:37;7;4;
61913;PMS5003;50095;53.336;-1.488;2022-08-21T10:37:18;5;5;
61913;PMS5003;50095;53.336;-1.488;2022-08-21T10:39:55;5;5;
61913;PMS5003;50095;53.336;-1.488;2022-08-21T10:42:36;5;5;
61913;PMS5003;50095;53.336;-1.488;2022-08-21T10:45:26;4;4;
61913;PMS5003;50095;53.336;-1.488;2022-08-21T10:48:04;7;5;
61913;PMS5003;50095;53.336;-1.488;2022-08-21T10:50:34;4;4;
61913;PMS5003;50095;53.336;-1.488;2022-08-21T10:56:10;3;3;
61913;PMS5003;50095;53.336;-1.488;2022-08-21T10:58:45;4;4;
61913;PMS5003;50095;53.336;-1.488;2022-08-21T11:01:18;4;4;
61913;PMS5003;50095;53.336;-1.488;2022-08-21T11:03:52;4;4;
61913;PMS5003;50095;53.336;-1.488;2022-08-21T11:06:31;3;3;
61913;PMS5003;50095;53.336;-1.488;2022-08-21T11:09:03;3;3;
61913;PMS5003;50095;53.336;-1.488;2022-08-21T11:11:39;5;5;
61913;PMS5003;50095;53.336;-1.488;2022-08-21T11:14:16;4;4;
61913;PMS5003;50095;53.336;-1.488;2022-08-21T11:16:53;6;5;
61913;PMS5003;50095;53.336;-1.488;2022-08-21T11:19:28;6;5;
61913;PMS5003;50095;53.336;-1.488;2022-08-21T11:22:08;6;6;
61913;PMS5003;50095;53.336;-1.488;2022-08-21T11:24:43;3;3;
61913;PMS5003;50095;53.336;-1.488;2022-08-21T11:27:19;5;5;
61913;PMS5003;50095;53.336;-1.488;2022-08-21T11:29:52;4;4;
61913;PMS5003;50095;53.336;-1.488;2022-08-21T11:32:27;4;4;
61913;PMS5003;50095;53.336;-1.488;2022-08-21T11:35:09;4;4;
61913;PMS5003;50095;53.336;-1.488;2022-08-21T11:37:51;4;4;
61913;PMS5003;50095;53.336;-1.488;2022-08-21T11:40:34;3;3;
61913;PMS5003;50095;53.336;-1.488;2022-08-21T11:43:21;5;5;
61913;PMS5003;50095;53.336;-1.488;2022-08-21T11:45:59;3;3;
61913;PMS5003;50095;53.336;-1.488;2022-08-21T11:48:36;6;6;
61913;PMS5003;50095;53.336;-1.488;2022-08-21T11:51:14;3;3;
61913;PMS5003;50095;53.336;-1.488;2022-08-21T11:53:46;5;5;
61913;PMS5003;50095;53.336;-1.488;2022-08-21T11:56:20;5;4;
61913;PMS5003;50095;53.336;-1.488;2022-08-21T11:58:52;5;5;
61913;PMS5003;50095;53.336;-1.488;2022-08-21T12:01:23;5;5;
61913;PMS5003;50095;53.336;-1.488;2022-08-21T12:03:55;5;5;
61913;PMS5003;50095;53.336;-1.488;2022-08-21T12:06:29;4;4;
61913;PMS5003;50095;53.336;-1.488;2022-08-21T12:09:00;4;4;
61913;PMS5003;50095;53.336;-1.488;2022-08-21T12:11:30;8;8;
61913;PMS5003;50095;53.336;-1.488;2022-08-21T12:14:00;4;4;
61913;PMS5003;50095;53.336;-1.488;2022-08-21T12:16:41;3;3;
61913;PMS5003;50095;53.336;-1.488;2022-08-21T12:19:10;7;7;
61913;PMS5003;50095;53.336;-1.488;2022-08-21T12:21:48;4;4;
61913;PMS5003;50095;53.336;-1.488;2022-08-21T12:24:18;6;5;
61913;PMS5003;50095;53.336;-1.488;2022-08-21T12:26:58;6;6;
61913;PMS5003;50095;53.336;-1.488;2022-08-21T12:29:43;4;4;
61913;PMS5003;50095;53.336;-1.488;2022-08-21T12:32:41;6;6;
61913;PMS5003;50095;53.336;-1.488;2022-08-21T12:35:14;5;5;
61913;PMS5003;50095;53.336;-1.488;2022-08-21T12:37:45;5;5;
61913;PMS5003;50095;53.336;-1.488;2022-08-21T12:40:18;5;5;
61913;PMS5003;50095;53.336;-1.488;2022-08-21T12:42:50;5;5;
61913;PMS5003;50095;53.336;-1.488;2022-08-21T12:45:23;4;4;
61913;PMS5003;50095;53.336;-1.488;2022-08-21T12:47:56;2;2;
61913;PMS5003;50095;53.336;-1.488;2022-08-21T12:50:31;4;4;
61913;PMS5003;50095;53.336;-1.488;2022-08-21T12:53:04;4;4;
61913;PMS5003;50095;53.336;-1.488;2022-08-21T12:55:37;4;4;
61913;PMS5003;50095;53.336;-1.488;2022-08-21T12:58:16;4;3;
61913;PMS5003;50095;53.336;-1.488;2022-08-21T13:00:47;4;4;
61913;PMS5003;50095;53.336;-1.488;2022-08-21T13:03:16;3;3;
61913;PMS5003;50095;53.336;-1.488;2022-08-21T13:05:44;3;3;
61913;PMS5003;50095;53.336;-1.488;2022-08-21T13:08:12;5;5;
61913;PMS5003;50095;53.336;-1.488;2022-08-21T13:10:40;4;4;
61913;PMS5003;50095;53.336;-1.488;2022-08-21T13:13:10;4;4;
61913;PMS5003;50095;53.336;-1.488;2022-08-21T13:15:44;4;4;
61913;PMS5003;50095;53.336;-1.488;2022-08-21T13:18:19;5;5;
61913;PMS5003;50095;53.336;-1.488;2022-08-21T13:20:49;5;5;
61913;PMS5003;50095;53.336;-1.488;2022-08-21T13:23:19;4;3;
61913;PMS5003;50095;53.336;-1.488;2022-08-21T13:25:50;5;5;
61913;PMS5003;50095;53.336;-1.488;2022-08-21T13:28:17;3;3;
61913;PMS5003;50095;53.336;-1.488;2022-08-21T13:30:46;4;4;
61913;PMS5003;50095;53.336;-1.488;2022-08-21T13:33:16;8;7;
61913;PMS5003;50095;53.336;-1.488;2022-08-21T13:35:48;4;4;
61913;PMS5003;50095;53.336;-1.488;2022-08-21T13:38:19;5;5;
61913;PMS5003;50095;53.336;-1.488;2022-08-21T13:40:49;4;4;
61913;PMS5003;50095;53.336;-1.488;2022-08-21T13:43:18;5;5;
61913;PMS5003;50095;53.336;-1.488;2022-08-21T13:45:52;5;5;
61913;PMS5003;50095;53.336;-1.488;2022-08-21T13:48:20;3;3;
61913;PMS5003;50095;53.336;-1.488;2022-08-21T13:50:51;5;5;
61913;PMS5003;50095;53.336;-1.488;2022-08-21T13:53:21;5;5;
61913;PMS5003;50095;53.336;-1.488;2022-08-21T13:55:54;4;3;
61913;PMS5003;50095;53.336;-1.488;2022-08-21T13:58:24;7;5;
61913;PMS5003;50095;53.336;-1.488;2022-08-21T14:00:53;5;5;
61913;PMS5003;50095;53.336;-1.488;2022-08-21T14:03:31;5;5;
61913;PMS5003;50095;53.336;-1.488;2022-08-21T14:06:02;6;6;
61913;PMS5003;50095;53.336;-1.488;2022-08-21T14:08:38;4;4;
61913;PMS5003;50095;53.336;-1.488;2022-08-21T14:11:09;4;4;
61913;PMS5003;50095;53.336;-1.488;2022-08-21T14:13:39;5;5;
61913;PMS5003;50095;53.336;-1.488;2022-08-21T14:16:13;6;6;
61913;PMS5003;50095;53.336;-1.488;2022-08-21T14:18:47;5;5;
61913;PMS5003;50095;53.336;-1.488;2022-08-21T14:21:24;7;7;
61913;PMS5003;50095;53.336;-1.488;2022-08-21T14:24:02;5;5;
61913;PMS5003;50095;53.336;-1.488;2022-08-21T14:26:32;4;3;
61913;PMS5003;50095;53.336;-1.488;2022-08-21T14:29:01;5;5;
61913;PMS5003;50095;53.336;-1.488;2022-08-21T14:31:33;6;6;
61913;PMS5003;50095;53.336;-1.488;2022-08-21T14:34:01;5;5;
61913;PMS5003;50095;53.336;-1.488;2022-08-21T14:36:29;7;7;
61913;PMS5003;50095;53.336;-1.488;2022-08-21T14:38:56;4;4;
61913;PMS5003;50095;53.336;-1.488;2022-08-21T14:41:24;4;4;
61913;PMS5003;50095;53.336;-1.488;2022-08-21T14:43:54;5;5;
61913;PMS5003;50095;53.336;-1.488;2022-08-21T14:46:24;5;5;
61913;PMS5003;50095;53.336;-1.488;2022-08-21T14:48:54;5;5;
61913;PMS5003;50095;53.336;-1.488;2022-08-21T14:51:21;5;5;
61913;PMS5003;50095;53.336;-1.488;2022-08-21T14:53:49;3;3;
61913;PMS5003;50095;53.336;-1.488;2022-08-21T14:56:16;4;4;
61913;PMS5003;50095;53.336;-1.488;2022-08-21T14:58:45;7;7;
61913;PMS5003;50095;53.336;-1.488;2022-08-21T15:01:15;6;6;
61913;PMS5003;50095;53.336;-1.488;2022-08-21T15:03:44;4;4;
61913;PMS5003;50095;53.336;-1.488;2022-08-21T15:06:12;8;8;
61913;PMS5003;50095;53.336;-1.488;2022-08-21T15:08:41;6;5;
61913;PMS5003;50095;53.336;-1.488;2022-08-21T15:11:09;7;7;
61913;PMS5003;50095;53.336;-1.488;2022-08-21T15:13:41;7;7;
61913;PMS5003;50095;53.336;-1.488;2022-08-21T15:16:09;8;7;
61913;PMS5003;50095;53.336;-1.488;2022-08-21T15:18:37;5;5;
61913;PMS5003;50095;53.336;-1.488;2022-08-21T15:21:05;6;4;
61913;PMS5003;50095;53.336;-1.488;2022-08-21T15:23:33;6;6;
61913;PMS5003;50095;53.336;-1.488;2022-08-21T15:26:01;6;6;
61913;PMS5003;50095;53.336;-1.488;2022-08-21T15:28:28;7;6;
61913;PMS5003;50095;53.336;-1.488;2022-08-21T15:30:56;7;6;
61913;PMS5003;50095;53.336;-1.488;2022-08-21T15:33:23;7;6;
61913;PMS5003;50095;53.336;-1.488;2022-08-21T15:35:51;8;7;
61913;PMS5003;50095;53.336;-1.488;2022-08-21T15:38:18;8;8;
61913;PMS5003;50095;53.336;-1.488;2022-08-21T15:40:46;10;9;
61913;PMS5003;50095;53.336;-1.488;2022-08-21T15:43:16;5;5;
61913;PMS5003;50095;53.336;-1.488;2022-08-21T15:45:48;9;8;
61913;PMS5003;50095;53.336;-1.488;2022-08-21T15:48:16;7;7;
61913;PMS5003;50095;53.336;-1.488;2022-08-21T15:50:43;9;9;
61913;PMS5003;50095;53.336;-1.488;2022-08-21T15:53:11;10;10;
61913;PMS5003;50095;53.336;-1.488;2022-08-21T15:55:39;10;7;
61913;PMS5003;50095;53.336;-1.488;2022-08-21T15:58:06;11;9;
61913;PMS5003;50095;53.336;-1.488;2022-08-21T16:00:38;11;9;
61913;PMS5003;50095;53.336;-1.488;2022-08-21T16:03:05;8;7;
61913;PMS5003;50095;53.336;-1.488;2022-08-21T16:05:35;5;5;
61913;PMS5003;50095;53.336;-1.488;2022-08-21T16:08:02;6;6;
61913;PMS5003;50095;53.336;-1.488;2022-08-21T16:10:30;6;6;
61913;PMS5003;50095;53.336;-1.488;2022-08-21T16:13:00;11;8;
61913;PMS5003;50095;53.336;-1.488;2022-08-21T16:15:30;7;6;
61913;PMS5003;50095;53.336;-1.488;2022-08-21T16:17:57;7;7;
61913;PMS5003;50095;53.336;-1.488;2022-08-21T16:20:26;7;7;
61913;PMS5003;50095;53.336;-1.488;2022-08-21T16:22:56;9;8;
61913;PMS5003;50095;53.336;-1.488;2022-08-21T16:25:24;6;6;
61913;PMS5003;50095;53.336;-1.488;2022-08-21T16:27:53;8;8;
61913;PMS5003;50095;53.336;-1.488;2022-08-21T16:30:25;6;6;
61913;PMS5003;50095;53.336;-1.488;2022-08-21T16:32:52;7;7;
61913;PMS5003;50095;53.336;-1.488;2022-08-21T16:35:20;7;7;
61913;PMS5003;50095;53.336;-1.488;2022-08-21T16:37:48;8;8;
61913;PMS5003;50095;53.336;-1.488;2022-08-21T16:40:16;8;8;
61913;PMS5003;50095;53.336;-1.488;2022-08-21T16:42:44;7;7;
61913;PMS5003;50095;53.336;-1.488;2022-08-21T16:45:12;5;5;
61913;PMS5003;50095;53.336;-1.488;2022-08-21T16:47:42;8;7;
61913;PMS5003;50095;53.336;-1.488;2022-08-21T16:50:09;6;6;
61913;PMS5003;50095;53.336;-1.488;2022-08-21T16:52:38;7;7;
61913;PMS5003;50095;53.336;-1.488;2022-08-21T16:55:06;6;6;